createdAt,value
2023-12-29T00:01:08.233Z,71.15
2023-12-29T00:03:36.799Z,71.11
2023-12-29T00:06:07.889Z,71.29
2023-12-29T00:08:37.630Z,71.07
2023-12-29T00:11:05.939Z,71.60
2023-12-29T00:13:33.935Z,71.30
2023-12-29T00:16:01.700Z,71.65
2023-12-29T00:18:32.407Z,71.41
2023-12-29T00:21:06.607Z,70.83
2023-12-29T00:23:35.701Z,71.14
2023-12-29T00:26:03.703Z,71.29
2023-12-29T00:28:31.395Z,71.40
2023-12-29T00:31:01.961Z,71.53
2023-12-29T00:33:33.179Z,71.42
2023-12-29T00:36:01.235Z,71.60
2023-12-29T00:38:29.655Z,71.40
2023-12-29T00:40:57.548Z,71.58
2023-12-29T00:43:25.339Z,71.90
2023-12-29T00:45:53.248Z,71.49
2023-12-29T00:48:21.126Z,71.82
2023-12-29T00:50:49.032Z,71.97
2023-12-29T00:53:16.814Z,71.58
2023-12-29T00:55:44.543Z,71.53
2023-12-29T00:58:12.395Z,72.00
2023-12-29T01:00:40.404Z,71.65
2023-12-29T01:03:08.198Z,71.34
2023-12-29T01:05:36.133Z,71.92
2023-12-29T01:08:03.958Z,71.98
2023-12-29T01:10:31.741Z,71.94
2023-12-29T01:12:59.508Z,71.90
2023-12-29T01:15:27.382Z,71.93
2023-12-29T01:17:55.366Z,71.86
2023-12-29T01:20:23.284Z,72.00
2023-12-29T01:22:51.633Z,71.96
2023-12-29T01:25:19.728Z,72.17
2023-12-29T01:27:47.990Z,72.36
2023-12-29T01:30:15.816Z,72.45
2023-12-29T01:32:43.736Z,72.44
2023-12-29T01:35:11.652Z,72.45
2023-12-29T01:37:39.580Z,72.40
2023-12-29T01:40:08.113Z,72.32
2023-12-29T01:42:36.090Z,72.27
2023-12-29T01:45:04.150Z,73.16
2023-12-29T01:47:33.109Z,73.32
2023-12-29T01:50:01.076Z,73.87
2023-12-29T01:52:29.233Z,73.14
2023-12-29T01:54:58.055Z,73.07
2023-12-29T01:57:25.936Z,72.79
2023-12-29T01:59:56.858Z,73.03
2023-12-29T02:02:25.607Z,72.71
2023-12-29T02:04:57.044Z,73.19
2023-12-29T02:07:31.816Z,73.12
2023-12-29T02:10:03.621Z,73.10
2023-12-29T02:12:31.481Z,73.37
2023-12-29T02:14:59.354Z,73.42
2023-12-29T02:17:39.235Z,74.64
2023-12-29T02:20:08.560Z,75.30
2023-12-29T02:22:36.502Z,75.55
2023-12-29T02:25:09.915Z,75.57
2023-12-29T02:27:40.565Z,74.80
2023-12-29T02:30:16.229Z,74.70
2023-12-29T02:32:47.124Z,74.48
2023-12-29T02:35:29.316Z,74.04
2023-12-29T02:37:57.822Z,74.35
2023-12-29T02:40:27.661Z,74.08
2023-12-29T02:42:55.627Z,73.62
2023-12-29T02:45:26.942Z,73.45
2023-12-29T02:47:55.622Z,73.33
2023-12-29T02:50:23.904Z,73.47
2023-12-29T02:52:53.018Z,73.56
2023-12-29T02:55:21.058Z,73.64
2023-12-29T02:57:50.257Z,73.82
2023-12-29T03:00:18.242Z,73.79
2023-12-29T03:02:46.115Z,73.45
2023-12-29T03:05:14.235Z,73.62
2023-12-29T03:07:42.389Z,73.71
2023-12-29T03:10:10.824Z,73.68
2023-12-29T03:12:39.571Z,73.75
2023-12-29T03:15:07.687Z,74.10
2023-12-29T03:17:35.430Z,73.96
2023-12-29T03:20:06.403Z,73.71
2023-12-29T03:22:34.936Z,73.71
2023-12-29T03:25:02.800Z,73.67
2023-12-29T03:27:30.533Z,73.75
2023-12-29T03:29:58.337Z,73.73
2023-12-29T03:32:26.231Z,73.30
2023-12-29T03:34:54.200Z,73.35
2023-12-29T03:37:22.023Z,73.48
2023-12-29T03:39:50.406Z,73.35
2023-12-29T03:42:18.234Z,73.59
2023-12-29T03:44:46.030Z,72.80
2023-12-29T03:47:13.893Z,72.73
2023-12-29T03:49:41.809Z,73.21
2023-12-29T03:52:09.660Z,73.17
2023-12-29T03:54:37.711Z,72.90
2023-12-29T03:57:05.725Z,72.92
2023-12-29T03:59:33.699Z,73.05
2023-12-29T04:02:01.450Z,73.11
2023-12-29T04:04:29.370Z,72.74
2023-12-29T04:06:57.310Z,72.96
2023-12-29T04:09:25.320Z,72.97
2023-12-29T04:11:55.919Z,73.24
2023-12-29T04:14:24.219Z,73.03
2023-12-29T04:16:52.216Z,73.11
2023-12-29T04:19:20.602Z,73.24
2023-12-29T04:21:49.320Z,73.17
2023-12-29T04:24:17.035Z,73.31
2023-12-29T04:26:44.913Z,73.58
2023-12-29T04:29:14.402Z,73.60
2023-12-29T04:31:42.813Z,73.76
2023-12-29T04:34:10.579Z,73.59
2023-12-29T04:36:38.347Z,73.44
2023-12-29T04:39:06.177Z,73.22
2023-12-29T04:41:33.885Z,73.18
2023-12-29T04:44:01.801Z,73.38
2023-12-29T04:46:29.768Z,73.51
2023-12-29T04:48:57.740Z,73.19
2023-12-29T04:51:25.620Z,73.24
2023-12-29T04:53:56.452Z,73.40
2023-12-29T04:56:24.405Z,73.64
2023-12-29T04:58:53.585Z,73.55
2023-12-29T05:01:21.494Z,73.55
2023-12-29T05:03:49.398Z,73.60
2023-12-29T05:06:17.253Z,73.43
2023-12-29T05:08:44.996Z,73.22
2023-12-29T05:11:13.459Z,73.50
2023-12-29T05:13:41.169Z,73.89
2023-12-29T05:16:09.040Z,73.62
2023-12-29T05:18:36.979Z,73.74
2023-12-29T05:21:05.070Z,73.66
2023-12-29T05:23:32.902Z,73.67
2023-12-29T05:26:00.707Z,73.24
2023-12-29T05:28:28.498Z,73.24
2023-12-29T05:30:56.964Z,73.30
2023-12-29T05:33:27.956Z,73.52
2023-12-29T05:35:55.739Z,73.33
2023-12-29T05:38:24.203Z,73.37
2023-12-29T05:40:55.458Z,73.40
2023-12-29T05:43:23.430Z,73.44
2023-12-29T05:45:51.346Z,73.22
2023-12-29T05:48:19.224Z,73.30
2023-12-29T05:50:47.156Z,73.59
2023-12-29T05:53:16.414Z,73.57
2023-12-29T05:55:46.198Z,73.66
2023-12-29T05:58:14.452Z,73.79
2023-12-29T06:00:42.578Z,73.79
2023-12-29T06:03:10.975Z,73.71
2023-12-29T06:05:38.839Z,73.88
2023-12-29T06:08:07.152Z,74.05
2023-12-29T06:10:36.859Z,73.62
2023-12-29T06:13:05.045Z,73.38
2023-12-29T06:15:33.066Z,73.50
2023-12-29T06:18:01.630Z,73.40
2023-12-29T06:20:29.704Z,73.43
2023-12-29T06:22:58.346Z,73.54
2023-12-29T06:25:26.299Z,73.42
2023-12-29T06:27:54.834Z,73.34
2023-12-29T06:30:22.947Z,73.18
2023-12-29T06:32:53.296Z,73.10
2023-12-29T06:35:21.339Z,73.14
2023-12-29T06:37:49.330Z,73.28
2023-12-29T06:40:18.619Z,73.57
2023-12-29T06:42:46.871Z,73.52
2023-12-29T06:45:14.832Z,73.47
2023-12-29T06:47:42.844Z,73.56
2023-12-29T06:50:14.412Z,74.13
2023-12-29T06:52:42.580Z,74.27
2023-12-29T06:55:10.803Z,74.34
2023-12-29T06:57:39.431Z,74.25
2023-12-29T07:00:08.030Z,74.67
2023-12-29T07:02:39.385Z,74.74
2023-12-29T07:05:07.665Z,75.05
2023-12-29T07:07:39.127Z,75.02
2023-12-29T07:10:07.725Z,75.29
2023-12-29T07:12:35.684Z,75.36
2023-12-29T07:15:03.742Z,75.68
2023-12-29T07:17:31.642Z,76.66
2023-12-29T07:19:59.507Z,76.79
2023-12-29T07:22:27.450Z,78.25
2023-12-29T07:24:55.535Z,79.22
2023-12-29T07:27:23.530Z,79.94
2023-12-29T07:29:51.430Z,80.82
2023-12-29T07:32:19.260Z,81.47
2023-12-29T07:34:47.314Z,82.15
2023-12-29T07:37:15.305Z,82.91
2023-12-29T07:39:43.497Z,83.61
2023-12-29T07:42:12.085Z,83.82
2023-12-29T07:44:40.756Z,83.96
2023-12-29T07:47:08.601Z,84.40
2023-12-29T07:49:36.798Z,84.72
2023-12-29T07:52:05.012Z,84.96
2023-12-29T07:54:32.786Z,84.94
2023-12-29T07:57:00.590Z,85.23
2023-12-29T07:59:28.380Z,85.20
2023-12-29T08:01:56.265Z,85.35
2023-12-29T08:04:24.919Z,85.47
2023-12-29T08:06:52.955Z,85.68
2023-12-29T08:09:21.308Z,85.71
2023-12-29T08:11:49.711Z,85.81
2023-12-29T08:14:17.798Z,85.83
2023-12-29T08:16:45.660Z,85.84
2023-12-29T08:19:13.529Z,85.80
2023-12-29T08:21:41.395Z,86.11
2023-12-29T08:24:09.323Z,86.14
2023-12-29T08:26:48.040Z,86.05
2023-12-29T08:29:16.876Z,86.02
2023-12-29T08:31:45.267Z,86.24
2023-12-29T08:34:14.004Z,86.23
2023-12-29T08:36:41.961Z,86.20
2023-12-29T08:39:10.597Z,86.10
2023-12-29T08:41:38.434Z,86.15
2023-12-29T08:44:06.183Z,86.17
2023-12-29T08:46:34.159Z,86.13
2023-12-29T08:49:02.361Z,86.06
2023-12-29T08:51:30.224Z,86.19
2023-12-29T08:53:58.071Z,86.48
2023-12-29T08:56:28.416Z,86.59
2023-12-29T08:58:57.247Z,86.52
2023-12-29T09:01:25.485Z,86.45
2023-12-29T09:03:53.537Z,86.11
2023-12-29T09:06:21.413Z,86.10
2023-12-29T09:08:49.398Z,85.86
2023-12-29T09:11:17.820Z,85.75
2023-12-29T09:13:45.655Z,85.79
2023-12-29T09:16:13.561Z,85.58
2023-12-29T09:18:41.546Z,85.49
2023-12-29T09:21:09.521Z,85.55
2023-12-29T09:23:39.641Z,85.38
2023-12-29T09:26:07.568Z,85.31
2023-12-29T09:28:36.061Z,84.81
2023-12-29T09:31:04.287Z,84.83
2023-12-29T09:33:32.524Z,85.01
2023-12-29T09:36:00.296Z,84.55
2023-12-29T09:38:28.124Z,84.70
2023-12-29T09:41:00.337Z,84.04
2023-12-29T09:43:29.174Z,84.00
2023-12-29T09:45:59.163Z,83.92
2023-12-29T09:48:28.934Z,84.02
2023-12-29T09:50:58.236Z,83.97
2023-12-29T09:53:28.070Z,84.23
2023-12-29T09:55:58.497Z,83.88
2023-12-29T09:58:26.687Z,84.35
2023-12-29T10:00:55.316Z,84.19
2023-12-29T10:03:23.161Z,84.36
2023-12-29T10:05:56.050Z,84.37
2023-12-29T10:08:24.932Z,84.27
2023-12-29T10:10:54.399Z,84.07
2023-12-29T10:13:24.504Z,83.96
2023-12-29T10:16:20.245Z,83.55
2023-12-29T10:19:20.541Z,83.58
2023-12-29T10:22:05.416Z,83.43
2023-12-29T10:24:34.799Z,83.07
2023-12-29T10:27:02.920Z,83.12
2023-12-29T10:29:30.919Z,82.37
2023-12-29T10:31:58.848Z,82.35
2023-12-29T10:34:31.050Z,82.03
2023-12-29T10:37:00.143Z,81.70
2023-12-29T10:39:29.346Z,81.13
2023-12-29T10:42:09.131Z,81.34
2023-12-29T10:44:38.856Z,81.08
2023-12-29T10:47:13.240Z,81.28
2023-12-29T10:49:42.585Z,80.64
2023-12-29T10:52:18.218Z,80.53
2023-12-29T10:54:46.697Z,80.88
2023-12-29T10:57:14.929Z,80.74
2023-12-29T10:59:43.344Z,80.31
2023-12-29T11:02:16.475Z,80.06
2023-12-29T11:04:44.593Z,80.24
2023-12-29T11:07:14.867Z,80.50
2023-12-29T11:09:42.914Z,80.65
2023-12-29T11:12:14.870Z,80.40
2023-12-29T11:14:47.558Z,80.74
2023-12-29T11:17:18.300Z,80.77
2023-12-29T11:19:49.705Z,80.39
2023-12-29T11:22:21.278Z,80.45
2023-12-29T11:24:50.312Z,81.14
2023-12-29T11:27:19.284Z,81.04
2023-12-29T11:29:48.323Z,81.32
2023-12-29T11:32:27.962Z,81.16
2023-12-29T11:35:14.162Z,80.95
2023-12-29T11:38:04.776Z,80.85
2023-12-29T11:40:54.349Z,80.59
2023-12-29T11:43:22.692Z,81.07
2023-12-29T11:45:52.195Z,80.91
2023-12-29T11:49:15.476Z,81.47
2023-12-29T11:51:52.986Z,81.03
2023-12-29T11:54:25.936Z,81.63
2023-12-29T11:56:55.644Z,82.34
2023-12-29T11:59:28.923Z,82.64
2023-12-29T12:02:05.465Z,82.31
2023-12-29T12:04:43.800Z,82.29
2023-12-29T12:07:24.948Z,82.04
2023-12-29T12:09:56.248Z,82.25
2023-12-29T12:12:44.157Z,82.43
2023-12-29T12:15:33.603Z,82.45
2023-12-29T12:18:12.150Z,82.59
2023-12-29T12:20:41.010Z,82.58
2023-12-29T12:23:23.001Z,82.64
2023-12-29T12:25:58.765Z,82.55
2023-12-29T12:28:26.812Z,82.09
2023-12-29T12:31:10.144Z,81.92
2023-12-29T12:33:38.299Z,81.75
2023-12-29T12:36:07.883Z,80.91
2023-12-29T12:38:35.911Z,81.16
2023-12-29T12:41:15.549Z,81.53
2023-12-29T12:43:55.496Z,81.54
2023-12-29T12:46:27.923Z,81.63
2023-12-29T12:48:56.805Z,81.55
2023-12-29T12:51:25.288Z,81.24
2023-12-29T12:53:54.640Z,81.18
2023-12-29T12:56:22.862Z,80.82
2023-12-29T12:58:50.844Z,80.89
2023-12-29T13:01:19.706Z,80.45
2023-12-29T13:03:48.491Z,81.25
2023-12-29T13:06:18.101Z,80.64
2023-12-29T13:08:46.957Z,81.13
2023-12-29T13:11:14.962Z,80.89
2023-12-29T13:13:44.913Z,81.36
2023-12-29T13:16:15.101Z,82.10
2023-12-29T13:18:43.332Z,82.57
2023-12-29T13:21:11.416Z,83.02
2023-12-29T13:23:39.502Z,83.81
2023-12-29T13:26:10.868Z,84.27
2023-12-29T13:28:40.726Z,84.73
2023-12-29T13:31:13.738Z,85.49
2023-12-29T13:33:59.092Z,85.41
2023-12-29T13:36:35.299Z,85.28
2023-12-29T13:39:24.724Z,85.54
2023-12-29T13:41:54.246Z,85.52
2023-12-29T13:44:24.384Z,85.42
2023-12-29T13:46:54.833Z,85.51
2023-12-29T13:49:23.176Z,85.29
2023-12-29T13:51:51.396Z,85.41
2023-12-29T13:54:19.263Z,85.73
2023-12-29T13:56:54.697Z,85.74
2023-12-29T13:59:35.396Z,85.75
2023-12-29T14:02:32.490Z,85.87
2023-12-29T14:05:29.246Z,85.93
2023-12-29T14:08:09.463Z,85.85
2023-12-29T14:10:38.650Z,85.91
2023-12-29T14:13:10.336Z,86.03
2023-12-29T14:15:39.253Z,86.02
2023-12-29T14:18:25.576Z,85.79
2023-12-29T14:20:54.625Z,85.47
2023-12-29T14:23:25.399Z,85.33
2023-12-29T14:25:53.452Z,85.33
2023-12-29T14:28:26.151Z,85.16
2023-12-29T14:31:03.750Z,85.04
2023-12-29T14:33:31.714Z,84.86
2023-12-29T14:35:59.735Z,84.68
2023-12-29T14:38:27.932Z,84.54
2023-12-29T14:40:55.677Z,84.36
2023-12-29T14:43:23.806Z,84.35
2023-12-29T14:45:52.126Z,84.32
2023-12-29T14:48:22.227Z,84.65
2023-12-29T14:50:50.484Z,84.68
2023-12-29T14:53:18.265Z,84.97
2023-12-29T14:55:46.624Z,85.33
2023-12-29T14:58:14.581Z,85.30
2023-12-29T15:00:47.910Z,85.35
2023-12-29T15:03:16.528Z,85.38
2023-12-29T15:05:45.561Z,85.38
2023-12-29T15:08:13.830Z,85.17
2023-12-29T15:10:41.839Z,85.09
2023-12-29T15:13:09.635Z,84.97
2023-12-29T15:15:37.586Z,85.09
2023-12-29T15:18:06.180Z,85.12
2023-12-29T15:20:34.070Z,85.41
2023-12-29T15:23:03.683Z,85.67
2023-12-29T15:25:31.541Z,85.70
2023-12-29T15:27:59.715Z,85.40
2023-12-29T15:30:27.710Z,85.52
2023-12-29T15:32:55.552Z,85.59
2023-12-29T15:35:25.891Z,85.30
2023-12-29T15:37:55.236Z,85.14
2023-12-29T15:40:23.236Z,85.47
2023-12-29T15:42:50.995Z,85.17
2023-12-29T15:45:20.605Z,85.05
2023-12-29T15:47:48.397Z,85.06
2023-12-29T15:50:16.401Z,84.85
2023-12-29T15:52:44.250Z,84.81
2023-12-29T15:55:12.301Z,84.82
2023-12-29T15:57:42.697Z,84.71
2023-12-29T16:00:11.989Z,84.48
2023-12-29T16:02:39.890Z,84.89
2023-12-29T16:05:08.128Z,84.64
2023-12-29T16:07:36.165Z,84.28
2023-12-29T16:10:05.011Z,84.35
2023-12-29T16:12:32.919Z,84.34
2023-12-29T16:15:00.719Z,84.22
2023-12-29T16:17:28.484Z,84.79
2023-12-29T16:19:56.241Z,84.68
2023-12-29T16:22:24.456Z,84.71
2023-12-29T16:24:53.200Z,84.88
2023-12-29T16:27:21.004Z,84.78
2023-12-29T16:29:48.721Z,84.48
2023-12-29T16:32:24.901Z,84.90
2023-12-29T16:34:54.947Z,84.85
2023-12-29T16:37:23.274Z,84.96
2023-12-29T16:39:54.639Z,85.29
2023-12-29T16:42:26.627Z,85.38
2023-12-29T16:44:54.402Z,85.44
2023-12-29T16:47:22.297Z,85.55
2023-12-29T16:49:50.546Z,85.65
2023-12-29T16:52:18.754Z,86.01
2023-12-29T16:54:49.412Z,86.30
2023-12-29T16:57:17.191Z,86.07
2023-12-29T16:59:45.005Z,86.02
2023-12-29T17:02:13.043Z,86.00
2023-12-29T17:04:43.107Z,86.09
2023-12-29T17:07:11.253Z,86.09
2023-12-29T17:09:44.186Z,86.18
2023-12-29T17:12:12.118Z,86.38
2023-12-29T17:14:40.152Z,86.64
2023-12-29T17:17:08.565Z,86.74
2023-12-29T17:19:36.904Z,86.50
2023-12-29T17:22:05.032Z,86.47
2023-12-29T17:24:34.929Z,86.48
2023-12-29T17:27:03.806Z,86.56
2023-12-29T17:29:31.957Z,86.45
2023-12-29T17:31:59.631Z,86.10
2023-12-29T17:34:28.744Z,85.98
2023-12-29T17:36:57.532Z,85.37
2023-12-29T17:39:25.494Z,85.25
2023-12-29T17:41:53.959Z,84.79
2023-12-29T17:44:21.680Z,84.75
2023-12-29T17:46:51.121Z,84.58
2023-12-29T17:49:19.460Z,84.39
2023-12-29T17:51:47.570Z,84.40
2023-12-29T17:54:15.587Z,84.01
2023-12-29T17:56:43.419Z,84.03
2023-12-29T17:59:11.407Z,84.29
2023-12-29T18:01:40.146Z,83.51
2023-12-29T18:04:07.875Z,83.43
2023-12-29T18:06:35.653Z,83.31
2023-12-29T18:09:03.772Z,83.40
2023-12-29T18:11:31.874Z,83.22
2023-12-29T18:14:00.966Z,83.22
2023-12-29T18:16:29.887Z,82.88
2023-12-29T18:18:57.879Z,83.02
2023-12-29T18:21:25.682Z,82.42
2023-12-29T18:23:56.142Z,82.74
2023-12-29T18:26:24.035Z,81.97
2023-12-29T18:28:51.745Z,82.35
2023-12-29T18:31:20.909Z,82.25
2023-12-29T18:33:49.118Z,82.40
2023-12-29T18:36:17.840Z,82.11
2023-12-29T18:38:45.472Z,82.14
2023-12-29T18:41:13.300Z,82.57
2023-12-29T18:43:41.015Z,83.10
2023-12-29T18:46:10.708Z,83.38
2023-12-29T18:48:40.343Z,83.44
2023-12-29T18:51:08.212Z,84.01
2023-12-29T18:53:36.425Z,84.06
2023-12-29T18:56:08.283Z,84.03
2023-12-29T18:58:36.493Z,84.07
2023-12-29T19:01:07.183Z,83.71
2023-12-29T19:03:36.054Z,83.90
2023-12-29T19:06:06.499Z,83.62
2023-12-29T19:08:35.470Z,83.21
2023-12-29T19:11:03.726Z,83.57
2023-12-29T19:13:31.774Z,83.48
2023-12-29T19:16:01.414Z,83.51
2023-12-29T19:18:29.417Z,82.21
2023-12-29T19:20:57.316Z,81.90
2023-12-29T19:23:27.287Z,82.33
2023-12-29T19:25:55.996Z,82.75
2023-12-29T19:28:24.524Z,83.30
2023-12-29T19:30:57.087Z,84.10
2023-12-29T19:33:25.288Z,84.19
2023-12-29T19:35:53.235Z,83.86
2023-12-29T19:38:21.120Z,83.73
2023-12-29T19:40:49.107Z,83.82
2023-12-29T19:43:16.923Z,83.99
2023-12-29T19:45:44.661Z,84.28
2023-12-29T19:48:13.239Z,84.29
2023-12-29T19:50:41.876Z,84.26
2023-12-29T19:53:09.949Z,84.06
2023-12-29T19:55:39.265Z,83.10
2023-12-29T19:58:08.929Z,83.28
2023-12-29T20:00:37.135Z,81.96
2023-12-29T20:03:05.596Z,80.42
2023-12-29T20:05:33.665Z,80.72
2023-12-29T20:08:04.949Z,80.12
2023-12-29T20:10:32.901Z,80.41
2023-12-29T20:13:00.947Z,79.29
2023-12-29T20:15:30.673Z,79.95
2023-12-29T20:17:58.708Z,80.13
2023-12-29T20:20:28.791Z,79.44
2023-12-29T20:22:56.718Z,79.77
2023-12-29T20:25:24.642Z,80.09
2023-12-29T20:27:53.047Z,80.58
2023-12-29T20:30:21.133Z,81.18
2023-12-29T20:32:49.116Z,81.50
2023-12-29T20:35:16.919Z,81.55
2023-12-29T20:37:44.810Z,81.86
2023-12-29T20:40:13.163Z,81.99
2023-12-29T20:42:42.502Z,82.37
2023-12-29T20:45:10.520Z,82.52
2023-12-29T20:47:38.473Z,82.73
2023-12-29T20:50:07.577Z,83.22
2023-12-29T20:52:35.529Z,83.38
2023-12-29T20:55:04.870Z,83.32
2023-12-29T20:57:33.361Z,83.34
2023-12-29T21:00:01.793Z,83.80
2023-12-29T21:02:29.633Z,84.21
2023-12-29T21:04:57.570Z,84.35
2023-12-29T21:07:26.702Z,84.19
2023-12-29T21:09:57.299Z,84.36
2023-12-29T21:12:25.295Z,84.26
2023-12-29T21:14:53.260Z,84.22
2023-12-29T21:17:21.100Z,84.33
2023-12-29T21:19:53.754Z,84.60
2023-12-29T21:22:21.798Z,84.69
2023-12-29T21:24:49.596Z,84.53
2023-12-29T21:27:17.395Z,82.50
2023-12-29T21:29:47.243Z,82.34
2023-12-29T21:32:16.386Z,81.31
2023-12-29T21:34:44.125Z,81.06
2023-12-29T21:37:12.071Z,81.73
2023-12-29T21:39:41.389Z,81.59
2023-12-29T21:42:09.137Z,81.46
2023-12-29T21:44:36.962Z,81.41
2023-12-29T21:47:04.929Z,80.85
2023-12-29T21:49:33.450Z,80.47
2023-12-29T21:52:01.616Z,80.50
2023-12-29T21:54:29.315Z,80.84
2023-12-29T21:57:00.238Z,80.83
2023-12-29T21:59:28.959Z,81.17
2023-12-29T22:01:57.662Z,81.39
2023-12-29T22:04:26.074Z,81.92
2023-12-29T22:06:54.184Z,82.13
2023-12-29T22:09:22.035Z,82.71
2023-12-29T22:11:50.594Z,82.91
2023-12-29T22:14:18.710Z,82.85
2023-12-29T22:16:46.623Z,82.97
2023-12-29T22:19:14.453Z,83.06
2023-12-29T22:21:42.233Z,83.19
2023-12-29T22:24:10.179Z,83.42
2023-12-29T22:26:38.629Z,83.51
2023-12-29T22:29:06.373Z,83.56
2023-12-29T22:31:34.679Z,83.70
2023-12-29T22:34:02.763Z,83.42
2023-12-29T22:36:30.798Z,83.39
2023-12-29T22:38:58.768Z,83.00
2023-12-29T22:41:26.612Z,82.98
2023-12-29T22:43:54.292Z,82.69
2023-12-29T22:46:25.127Z,82.65
2023-12-29T22:48:55.496Z,82.08
2023-12-29T22:51:26.485Z,82.31
2023-12-29T22:53:54.304Z,81.89
2023-12-29T22:56:22.954Z,81.91
2023-12-29T22:58:51.280Z,81.92
2023-12-29T23:01:19.242Z,81.50
2023-12-29T23:03:48.181Z,81.29
2023-12-29T23:06:16.527Z,81.51
2023-12-29T23:08:44.355Z,81.55
2023-12-29T23:11:12.443Z,81.48
2023-12-29T23:13:41.002Z,81.48
2023-12-29T23:16:10.155Z,81.51
2023-12-29T23:18:38.598Z,81.49
2023-12-29T23:21:06.797Z,81.38
2023-12-29T23:23:34.469Z,81.58
2023-12-29T23:26:03.577Z,81.50
2023-12-29T23:28:32.122Z,81.79
2023-12-29T23:31:00.220Z,81.53
2023-12-29T23:33:28.191Z,81.07
2023-12-29T23:35:56.224Z,81.09
2023-12-29T23:38:24.611Z,81.12
2023-12-29T23:40:52.828Z,80.82
2023-12-29T23:43:20.662Z,80.68
2023-12-29T23:45:48.515Z,80.42
2023-12-29T23:48:16.549Z,80.31
2023-12-29T23:50:44.504Z,80.41
2023-12-29T23:53:12.501Z,79.99
2023-12-29T23:55:40.145Z,80.13
2023-12-29T23:58:08.103Z,79.78
